createdAt,value
2018-07-13T00:02:14.040Z,15.89
2018-07-13T00:04:42.209Z,15.91
2018-07-13T00:07:10.354Z,15.93
2018-07-13T00:09:38.499Z,15.97
2018-07-13T00:12:06.679Z,15.98
2018-07-13T00:14:34.859Z,16.00
2018-07-13T00:17:03.320Z,15.98
2018-07-13T00:19:31.463Z,15.91
2018-07-13T00:21:59.589Z,15.84
2018-07-13T00:24:27.773Z,15.92
2018-07-13T00:26:55.896Z,15.89
2018-07-13T00:29:24.052Z,15.95
2018-07-13T00:31:52.193Z,16.01
2018-07-13T00:34:20.339Z,16.03
2018-07-13T00:36:48.482Z,15.93
2018-07-13T00:39:16.596Z,16.02
2018-07-13T00:41:44.719Z,15.94
2018-07-13T00:44:12.852Z,15.95
2018-07-13T00:46:40.967Z,16.02
2018-07-13T00:49:09.095Z,16.02
2018-07-13T00:51:37.251Z,15.95
2018-07-13T00:54:05.368Z,15.97
2018-07-13T00:56:33.529Z,15.96
2018-07-13T00:59:01.652Z,16.05
2018-07-13T01:01:29.807Z,16.00
2018-07-13T01:03:57.923Z,16.03
2018-07-13T01:06:26.044Z,16.00
2018-07-13T01:08:54.229Z,15.97
2018-07-13T01:11:22.364Z,15.90
2018-07-13T01:13:50.936Z,15.92
2018-07-13T01:16:19.035Z,15.86
2018-07-13T01:18:47.176Z,15.96
2018-07-13T01:21:15.328Z,15.95
2018-07-13T01:23:43.504Z,16.05
2018-07-13T01:26:11.665Z,15.92
2018-07-13T01:28:39.839Z,15.96
2018-07-13T01:31:07.977Z,16.09
2018-07-13T01:33:36.158Z,16.08
2018-07-13T01:36:04.319Z,16.11
2018-07-13T01:38:32.448Z,16.07
2018-07-13T01:41:00.614Z,16.10
2018-07-13T01:43:28.782Z,16.07
2018-07-13T01:45:56.932Z,16.17
2018-07-13T01:48:25.103Z,16.03
2018-07-13T01:50:53.265Z,15.85
2018-07-13T01:53:21.412Z,15.98
2018-07-13T01:55:49.572Z,15.97
2018-07-13T01:58:17.756Z,15.96
2018-07-13T02:00:45.967Z,15.97
2018-07-13T02:03:14.076Z,16.00
2018-07-13T02:05:42.174Z,15.94
2018-07-13T02:08:10.296Z,15.84
2018-07-13T02:10:38.447Z,15.86
2018-07-13T02:13:06.571Z,15.87
2018-07-13T02:15:34.711Z,15.83
2018-07-13T02:18:02.833Z,15.88
2018-07-13T02:20:31.014Z,15.90
2018-07-13T02:22:59.148Z,15.91
2018-07-13T02:25:27.317Z,15.90
2018-07-13T02:27:55.432Z,15.87
2018-07-13T02:30:23.588Z,15.94
2018-07-13T02:32:51.711Z,15.92
2018-07-13T02:35:19.856Z,15.94
2018-07-13T02:37:47.989Z,15.92
2018-07-13T02:40:16.145Z,15.86
2018-07-13T02:42:44.273Z,15.87
2018-07-13T02:45:12.421Z,15.89
2018-07-13T02:47:40.566Z,15.87
2018-07-13T02:50:08.678Z,15.88
2018-07-13T02:52:36.839Z,15.88
2018-07-13T02:55:05.085Z,15.91
2018-07-13T02:57:33.268Z,15.82
2018-07-13T03:00:01.447Z,15.87
2018-07-13T03:02:29.645Z,15.88
2018-07-13T03:04:57.784Z,15.93
2018-07-13T03:07:25.936Z,15.84
2018-07-13T03:09:54.092Z,15.85
2018-07-13T03:12:22.216Z,15.85
2018-07-13T03:14:50.304Z,15.87
2018-07-13T03:17:18.406Z,15.91
2018-07-13T03:19:46.754Z,15.82
2018-07-13T03:22:14.952Z,15.82
2018-07-13T03:24:42.980Z,15.85
2018-07-13T03:27:11.084Z,15.89
2018-07-13T03:29:40.230Z,15.91
2018-07-13T03:32:08.443Z,15.98
2018-07-13T03:34:36.588Z,16.03
2018-07-13T03:37:04.808Z,16.10
2018-07-13T03:39:32.965Z,16.08
2018-07-13T03:42:01.095Z,16.09
2018-07-13T03:44:29.238Z,16.13
2018-07-13T03:46:58.240Z,16.18
2018-07-13T03:49:26.355Z,16.14
2018-07-13T03:51:54.457Z,16.20
2018-07-13T03:54:22.632Z,16.23
2018-07-13T03:56:50.776Z,16.19
2018-07-13T03:59:18.949Z,16.07
2018-07-13T04:01:47.088Z,16.05
2018-07-13T04:04:15.348Z,16.13
2018-07-13T04:06:43.446Z,16.20
2018-07-13T04:09:12.060Z,16.17
2018-07-13T04:11:40.208Z,16.19
2018-07-13T04:14:08.584Z,16.18
2018-07-13T04:16:36.697Z,16.21
2018-07-13T04:19:05.158Z,16.18
2018-07-13T04:21:33.280Z,16.17
2018-07-13T04:24:01.420Z,16.24
2018-07-13T04:26:29.627Z,16.23
2018-07-13T04:28:57.880Z,16.27
2018-07-13T04:31:26.076Z,16.16
2018-07-13T04:33:54.184Z,16.12
2018-07-13T04:36:22.311Z,16.13
2018-07-13T04:38:50.396Z,16.14
2018-07-13T04:41:18.512Z,16.13
2018-07-13T04:43:46.617Z,16.19
2018-07-13T04:46:14.722Z,16.21
2018-07-13T04:48:42.812Z,16.18
2018-07-13T04:51:10.968Z,16.23
2018-07-13T04:53:39.121Z,16.30
2018-07-13T04:56:07.300Z,16.27
2018-07-13T04:58:35.387Z,16.24
2018-07-13T05:01:03.542Z,16.24
2018-07-13T05:03:31.794Z,16.29
2018-07-13T05:05:59.912Z,16.34
2018-07-13T05:08:28.044Z,16.38
2018-07-13T05:10:56.204Z,16.37
2018-07-13T05:13:24.274Z,16.44
2018-07-13T05:15:52.398Z,16.48
2018-07-13T05:18:20.536Z,16.58
2018-07-13T05:20:48.664Z,16.58
2018-07-13T05:23:16.769Z,16.60
2018-07-13T05:25:44.873Z,16.71
2018-07-13T05:28:13.064Z,16.75
2018-07-13T05:30:41.209Z,16.76
2018-07-13T05:33:09.310Z,16.75
2018-07-13T05:35:39.212Z,16.68
2018-07-13T05:38:07.328Z,16.57
2018-07-13T05:40:35.459Z,16.70
2018-07-13T05:43:03.614Z,16.70
2018-07-13T05:45:31.904Z,16.71
2018-07-13T05:48:00.058Z,16.77
2018-07-13T05:50:28.175Z,16.79
2018-07-13T05:52:56.361Z,16.80
2018-07-13T05:55:24.504Z,16.92
2018-07-13T05:57:52.627Z,16.96
2018-07-13T06:00:20.824Z,17.03
2018-07-13T06:02:48.968Z,17.01
2018-07-13T06:05:17.162Z,17.06
2018-07-13T06:07:45.403Z,17.02
2018-07-13T06:10:13.536Z,17.10
2018-07-13T06:12:41.769Z,17.12
2018-07-13T06:15:09.930Z,17.23
2018-07-13T06:17:38.020Z,17.18
2018-07-13T06:20:08.295Z,17.23
2018-07-13T06:22:36.453Z,17.32
2018-07-13T06:25:04.635Z,17.38
2018-07-13T06:27:32.737Z,17.41
2018-07-13T06:30:00.913Z,17.52
2018-07-13T06:32:29.019Z,17.57
2018-07-13T06:34:57.144Z,17.59
2018-07-13T06:37:25.265Z,17.61
2018-07-13T06:39:53.387Z,17.60
2018-07-13T06:42:21.476Z,17.60
2018-07-13T06:44:49.645Z,17.68
2018-07-13T06:47:17.741Z,17.67
2018-07-13T06:49:45.919Z,17.61
2018-07-13T06:52:14.537Z,17.71
2018-07-13T06:54:42.678Z,17.69
2018-07-13T06:57:17.076Z,17.76
2018-07-13T06:59:45.240Z,17.75
2018-07-13T07:02:23.378Z,17.85
2018-07-13T07:04:56.657Z,17.95
2018-07-13T07:07:27.031Z,17.92
2018-07-13T07:09:57.004Z,18.11
2018-07-13T07:13:31.550Z,18.41
2018-07-13T07:16:00.037Z,18.75
2018-07-13T07:18:28.158Z,18.72
2018-07-13T07:20:57.316Z,18.86
2018-07-13T07:23:26.670Z,19.13
2018-07-13T07:25:55.629Z,19.54
2018-07-13T07:28:23.808Z,19.40
2018-07-13T07:30:52.268Z,19.48
2018-07-13T07:33:20.432Z,19.65
2018-07-13T07:35:48.696Z,20.03
2018-07-13T07:38:16.934Z,21.49
2018-07-13T07:40:45.239Z,22.27
2018-07-13T07:43:13.438Z,22.52
2018-07-13T07:45:41.544Z,22.66
2018-07-13T07:48:09.692Z,23.11
2018-07-13T07:50:37.816Z,23.29
2018-07-13T07:53:05.937Z,23.21
2018-07-13T07:55:34.056Z,22.50
2018-07-13T07:58:02.144Z,23.42
2018-07-13T08:00:30.271Z,23.91
2018-07-13T08:02:58.389Z,23.89
2018-07-13T08:05:26.526Z,24.35
2018-07-13T08:07:54.691Z,24.73
2018-07-13T08:10:22.804Z,26.07
2018-07-13T08:12:51.133Z,25.86
2018-07-13T08:15:19.264Z,25.97
2018-07-13T08:17:47.386Z,25.86
2018-07-13T08:20:18.264Z,25.42
2018-07-13T08:22:50.281Z,25.58
2018-07-13T08:25:18.406Z,26.08
2018-07-13T08:27:48.296Z,25.61
2018-07-13T08:30:49.809Z,25.63
2018-07-13T08:33:17.934Z,25.96
2018-07-13T08:35:46.053Z,26.16
2018-07-13T08:38:14.152Z,25.92
2018-07-13T08:40:42.297Z,26.25
2018-07-13T08:43:10.404Z,25.72
2018-07-13T08:45:38.588Z,26.17
2018-07-13T08:48:06.643Z,26.25
2018-07-13T08:50:34.754Z,25.58
2018-07-13T08:53:02.831Z,25.55
2018-07-13T08:55:30.964Z,25.99
2018-07-13T08:57:59.346Z,25.43
2018-07-13T09:00:27.459Z,25.85
2018-07-13T09:02:55.580Z,25.51
2018-07-13T09:05:23.755Z,25.57
2018-07-13T09:07:51.867Z,25.38
2018-07-13T09:10:20.005Z,24.97
2018-07-13T09:12:48.091Z,25.45
2018-07-13T09:15:16.181Z,25.21
2018-07-13T09:17:44.309Z,25.61
2018-07-13T09:20:13.410Z,25.36
2018-07-13T09:22:41.583Z,25.18
2018-07-13T09:25:10.275Z,24.97
2018-07-13T09:27:38.869Z,25.25
2018-07-13T09:30:07.562Z,25.31
2018-07-13T09:32:35.655Z,24.70
2018-07-13T09:35:03.773Z,24.73
2018-07-13T09:37:32.268Z,24.84
2018-07-13T09:40:00.416Z,24.60
2018-07-13T09:42:28.564Z,24.30
2018-07-13T09:44:56.698Z,23.95
2018-07-13T09:47:24.826Z,23.92
2018-07-13T09:49:53.200Z,23.54
2018-07-13T09:52:21.355Z,23.76
2018-07-13T09:54:49.530Z,23.76
2018-07-13T09:57:17.635Z,23.68
2018-07-13T09:59:45.756Z,23.83
2018-07-13T10:02:13.872Z,23.95
2018-07-13T10:04:42.009Z,23.64
2018-07-13T10:07:10.132Z,23.77
2018-07-13T10:09:38.268Z,23.82
2018-07-13T10:12:06.398Z,23.81
2018-07-13T10:14:34.630Z,24.01
2018-07-13T10:17:02.745Z,23.64
2018-07-13T10:19:30.823Z,23.83
2018-07-13T10:21:59.058Z,23.78
2018-07-13T10:24:27.977Z,23.99
2018-07-13T10:26:56.637Z,24.22
2018-07-13T10:29:28.609Z,24.28
2018-07-13T10:31:56.735Z,24.36
2018-07-13T10:34:24.947Z,23.74
2018-07-13T10:36:56.905Z,23.53
2018-07-13T10:39:25.100Z,23.37
2018-07-13T10:41:53.604Z,23.84
2018-07-13T10:44:21.827Z,24.04
2018-07-13T10:46:49.922Z,24.20
2018-07-13T10:49:18.137Z,24.47
2018-07-13T10:51:46.296Z,24.63
2018-07-13T10:54:14.456Z,24.38
2018-07-13T10:56:42.599Z,24.55
2018-07-13T10:59:10.703Z,24.46
2018-07-13T11:01:38.858Z,24.41
2018-07-13T11:04:07.000Z,24.56
2018-07-13T11:06:35.100Z,24.68
2018-07-13T11:09:03.346Z,24.44
2018-07-13T11:11:31.470Z,24.72
2018-07-13T11:13:59.632Z,24.40
2018-07-13T11:16:27.711Z,24.58
2018-07-13T11:18:56.367Z,24.68
2018-07-13T11:21:24.580Z,24.89
2018-07-13T11:23:52.742Z,24.85
2018-07-13T11:26:22.957Z,24.05
2018-07-13T11:28:51.165Z,24.23
2018-07-13T11:31:19.308Z,24.24
2018-07-13T11:33:47.453Z,24.69
2018-07-13T11:36:15.597Z,24.81
2018-07-13T11:38:43.772Z,24.86
2018-07-13T11:41:11.873Z,24.92
2018-07-13T11:43:39.993Z,24.75
2018-07-13T11:46:08.156Z,24.47
2018-07-13T11:48:36.332Z,24.69
2018-07-13T11:51:04.616Z,24.76
2018-07-13T11:53:32.692Z,24.84
2018-07-13T11:56:00.849Z,24.89
2018-07-13T11:58:28.980Z,24.93
2018-07-13T12:00:57.145Z,25.03
2018-07-13T12:03:25.283Z,24.83
2018-07-13T12:05:53.411Z,24.77
2018-07-13T12:08:21.482Z,24.91
2018-07-13T12:10:49.637Z,25.03
2018-07-13T12:13:17.769Z,24.69
2018-07-13T12:15:46.348Z,24.87
2018-07-13T12:18:14.499Z,25.00
2018-07-13T12:20:42.686Z,25.07
2018-07-13T12:23:11.032Z,24.84
2018-07-13T12:25:39.134Z,24.69
2018-07-13T12:28:07.255Z,24.73
2018-07-13T12:30:35.436Z,24.88
2018-07-13T12:33:03.596Z,24.98
2018-07-13T12:35:31.692Z,24.88
2018-07-13T12:37:59.848Z,25.18
2018-07-13T12:40:28.018Z,25.08
2018-07-13T12:42:56.187Z,25.25
2018-07-13T12:45:24.376Z,25.20
2018-07-13T12:47:52.542Z,25.03
2018-07-13T12:50:20.680Z,25.27
2018-07-13T12:52:48.940Z,25.11
2018-07-13T12:55:17.055Z,25.11
2018-07-13T12:57:45.168Z,25.06
2018-07-13T13:00:13.306Z,25.23
2018-07-13T13:02:41.479Z,24.88
2018-07-13T13:05:09.625Z,24.83
2018-07-13T13:07:37.738Z,24.63
2018-07-13T13:10:05.930Z,25.01
2018-07-13T13:12:34.038Z,25.24
2018-07-13T13:15:02.192Z,25.13
2018-07-13T13:17:30.337Z,25.31
2018-07-13T13:19:58.431Z,25.45
2018-07-13T13:22:26.557Z,25.44
2018-07-13T13:24:54.679Z,25.25
2018-07-13T13:27:22.833Z,25.14
2018-07-13T13:29:51.034Z,25.26
2018-07-13T13:32:19.150Z,25.18
2018-07-13T13:34:47.309Z,25.23
2018-07-13T13:37:15.449Z,25.33
2018-07-13T13:39:44.526Z,25.12
2018-07-13T13:42:12.628Z,25.21
2018-07-13T13:44:40.965Z,25.06
2018-07-13T13:47:09.074Z,25.00
2018-07-13T13:49:37.172Z,25.16
2018-07-13T13:52:05.289Z,25.18
2018-07-13T13:54:33.427Z,25.08
2018-07-13T13:57:01.540Z,25.05
2018-07-13T13:59:29.720Z,24.95
2018-07-13T14:01:57.856Z,24.53
2018-07-13T14:04:26.032Z,24.83
2018-07-13T14:06:54.187Z,24.78
2018-07-13T14:09:22.313Z,24.82
2018-07-13T14:11:50.448Z,24.73
2018-07-13T14:14:18.643Z,24.87
2018-07-13T14:16:46.808Z,24.75
2018-07-13T14:19:14.912Z,24.75
2018-07-13T14:21:43.039Z,24.70
2018-07-13T14:24:11.181Z,24.84
2018-07-13T14:26:39.326Z,24.76
2018-07-13T14:29:07.460Z,24.57
2018-07-13T14:31:35.605Z,24.61
2018-07-13T14:34:03.706Z,24.55
2018-07-13T14:36:31.893Z,24.64
2018-07-13T14:39:00.027Z,24.74
2018-07-13T14:41:28.192Z,24.50
2018-07-13T14:43:56.328Z,24.47
2018-07-13T14:46:24.466Z,24.33
2018-07-13T14:48:52.615Z,24.37
2018-07-13T14:51:20.740Z,24.37
2018-07-13T14:53:48.909Z,24.30
2018-07-13T14:56:17.049Z,24.15
2018-07-13T14:58:54.133Z,24.22
2018-07-13T15:01:30.004Z,24.26
2018-07-13T15:03:59.417Z,23.94
2018-07-13T15:06:28.533Z,23.91
2018-07-13T15:08:56.568Z,23.97
2018-07-13T15:11:24.736Z,23.93
2018-07-13T15:13:52.918Z,23.86
2018-07-13T15:16:21.070Z,23.93
2018-07-13T15:18:49.460Z,24.02
2018-07-13T15:21:17.575Z,23.93
2018-07-13T15:23:45.754Z,23.94
2018-07-13T15:26:13.868Z,23.75
2018-07-13T15:28:41.979Z,23.70
2018-07-13T15:31:10.136Z,23.85
2018-07-13T15:33:38.302Z,23.68
2018-07-13T15:36:06.470Z,23.20
2018-07-13T15:38:34.611Z,23.18
2018-07-13T15:41:02.788Z,23.10
2018-07-13T15:43:30.996Z,23.12
2018-07-13T15:45:59.158Z,23.06
2018-07-13T15:48:27.276Z,22.87
2018-07-13T15:50:55.397Z,22.79
2018-07-13T15:53:23.527Z,22.62
2018-07-13T15:55:58.722Z,22.54
2018-07-13T15:58:27.539Z,22.33
2018-07-13T16:00:55.711Z,22.21
2018-07-13T16:03:23.980Z,22.32
2018-07-13T16:05:52.234Z,22.40
2018-07-13T16:08:20.486Z,22.34
2018-07-13T16:10:48.726Z,22.26
2018-07-13T16:13:16.811Z,22.18
2018-07-13T16:15:44.908Z,22.16
2018-07-13T16:18:13.028Z,22.14
2018-07-13T16:20:41.260Z,22.08
2018-07-13T16:23:09.338Z,22.05
2018-07-13T16:25:37.464Z,21.97
2018-07-13T16:28:05.560Z,21.96
2018-07-13T16:30:33.686Z,21.88
2018-07-13T16:33:01.769Z,21.87
2018-07-13T16:35:29.869Z,21.83
2018-07-13T16:37:58.083Z,21.69
2018-07-13T16:40:26.312Z,21.58
2018-07-13T16:42:54.424Z,21.58
2018-07-13T16:45:22.643Z,21.38
2018-07-13T16:47:50.795Z,21.33
2018-07-13T16:50:19.119Z,21.28
2018-07-13T16:52:47.803Z,21.20
2018-07-13T16:55:15.964Z,21.19
2018-07-13T16:57:44.380Z,21.13
2018-07-13T17:00:12.716Z,21.05
2018-07-13T17:02:40.828Z,21.04
2018-07-13T17:05:09.095Z,21.08
2018-07-13T17:07:37.270Z,21.00
2018-07-13T17:10:05.407Z,20.99
2018-07-13T17:12:33.510Z,20.86
2018-07-13T17:15:01.716Z,20.80
2018-07-13T17:17:29.864Z,20.66
2018-07-13T17:19:58.047Z,20.61
2018-07-13T17:22:26.197Z,20.53
2018-07-13T17:24:54.334Z,20.59
2018-07-13T17:27:22.610Z,20.53
2018-07-13T17:29:50.723Z,20.37
2018-07-13T17:32:18.825Z,20.32
2018-07-13T17:34:47.079Z,20.20
2018-07-13T17:37:15.308Z,20.20
2018-07-13T17:39:43.423Z,19.99
2018-07-13T17:42:11.552Z,19.91
2018-07-13T17:44:39.713Z,19.92
2018-07-13T17:47:07.903Z,19.92
2018-07-13T17:49:36.491Z,19.90
2018-07-13T17:52:04.698Z,19.86
2018-07-13T17:54:32.888Z,19.78
2018-07-13T17:57:01.028Z,19.65
2018-07-13T17:59:29.178Z,19.68
2018-07-13T18:01:57.337Z,19.65
2018-07-13T18:04:25.438Z,19.54
2018-07-13T18:06:53.622Z,19.56
2018-07-13T18:09:21.755Z,19.48
2018-07-13T18:11:49.997Z,19.39
2018-07-13T18:14:18.158Z,19.41
2018-07-13T18:16:46.252Z,19.38
2018-07-13T18:19:14.471Z,19.23
2018-07-13T18:21:42.619Z,19.16
2018-07-13T18:24:10.747Z,19.13
2018-07-13T18:26:38.835Z,19.07
2018-07-13T18:29:07.042Z,19.03
2018-07-13T18:31:35.177Z,19.04
2018-07-13T18:34:03.280Z,18.98
2018-07-13T18:36:31.443Z,18.92
2018-07-13T18:38:59.553Z,18.84
2018-07-13T18:41:27.643Z,18.80
2018-07-13T18:43:55.816Z,18.85
2018-07-13T18:46:23.972Z,18.78
2018-07-13T18:48:52.078Z,18.59
2018-07-13T18:51:20.336Z,18.50
2018-07-13T18:53:48.452Z,18.52
2018-07-13T18:56:16.547Z,18.49
2018-07-13T18:58:44.638Z,18.45
2018-07-13T19:01:12.773Z,18.34
2018-07-13T19:03:40.856Z,18.34
2018-07-13T19:06:09.027Z,18.28
2018-07-13T19:08:37.141Z,18.24
2018-07-13T19:11:05.285Z,18.16
2018-07-13T19:13:33.464Z,18.13
2018-07-13T19:16:01.484Z,18.07
2018-07-13T19:18:29.585Z,17.97
2018-07-13T19:20:57.693Z,17.92
2018-07-13T19:23:25.821Z,17.95
2018-07-13T19:25:53.946Z,17.89
2018-07-13T19:28:22.095Z,17.81
2018-07-13T19:30:50.295Z,17.75
2018-07-13T19:33:18.318Z,17.67
2018-07-13T19:35:46.408Z,17.59
2018-07-13T19:38:14.503Z,17.52
2018-07-13T19:40:42.660Z,17.40
2018-07-13T19:43:10.794Z,17.40
2018-07-13T19:45:38.924Z,17.25
2018-07-13T19:48:07.103Z,17.28
2018-07-13T19:50:35.348Z,17.13
2018-07-13T19:53:03.529Z,17.10
2018-07-13T19:55:31.726Z,17.05
2018-07-13T19:57:59.864Z,16.96
2018-07-13T20:00:27.963Z,16.92
2018-07-13T20:02:56.118Z,16.86
2018-07-13T20:05:24.171Z,16.76
2018-07-13T20:07:52.294Z,16.75
2018-07-13T20:10:20.456Z,16.77
2018-07-13T20:12:48.554Z,16.70
2018-07-13T20:15:16.706Z,16.61
2018-07-13T20:17:44.811Z,16.55
2018-07-13T20:20:12.928Z,16.49
2018-07-13T20:22:41.048Z,16.49
2018-07-13T20:25:09.199Z,16.35
2018-07-13T20:27:37.663Z,16.17
2018-07-13T20:30:06.027Z,16.29
2018-07-13T20:32:34.164Z,16.35
2018-07-13T20:35:02.271Z,16.32
2018-07-13T20:37:30.396Z,16.36
2018-07-13T20:39:58.766Z,16.32
2018-07-13T20:42:26.958Z,16.33
2018-07-13T20:44:55.336Z,16.26
2018-07-13T20:47:23.457Z,16.29
2018-07-13T20:49:52.029Z,16.15
2018-07-13T20:52:20.149Z,16.15
2018-07-13T20:54:48.236Z,16.15
2018-07-13T20:57:16.427Z,16.01
2018-07-13T20:59:44.572Z,16.02
2018-07-13T21:02:12.748Z,15.98
2018-07-13T21:04:40.919Z,15.86
2018-07-13T21:07:09.040Z,15.83
2018-07-13T21:09:37.221Z,15.85
2018-07-13T21:12:05.483Z,15.74
2018-07-13T21:14:33.657Z,15.79
2018-07-13T21:17:01.809Z,15.68
2018-07-13T21:19:29.913Z,15.78
2018-07-13T21:21:58.091Z,15.72
2018-07-13T21:24:26.227Z,15.69
2018-07-13T21:26:54.433Z,15.58
2018-07-13T21:29:22.513Z,15.48
2018-07-13T21:31:50.732Z,15.51
2018-07-13T21:34:18.851Z,15.46
2018-07-13T21:36:47.013Z,15.38
2018-07-13T21:39:15.235Z,15.35
2018-07-13T21:41:43.348Z,15.23
2018-07-13T21:44:11.507Z,15.12
2018-07-13T21:46:39.698Z,15.19
2018-07-13T21:49:07.831Z,15.23
2018-07-13T21:51:35.942Z,15.24
2018-07-13T21:54:04.052Z,15.18
2018-07-13T21:56:32.212Z,15.10
2018-07-13T21:59:00.316Z,15.07
2018-07-13T22:01:28.451Z,15.11
2018-07-13T22:03:56.578Z,15.18
2018-07-13T22:06:24.767Z,15.03
2018-07-13T22:08:52.913Z,14.99
2018-07-13T22:11:21.009Z,14.98
2018-07-13T22:13:49.188Z,14.97
2018-07-13T22:16:17.345Z,14.96
2018-07-13T22:18:45.589Z,14.82
2018-07-13T22:21:13.710Z,14.89
2018-07-13T22:23:41.874Z,14.89
2018-07-13T22:26:10.035Z,14.79
2018-07-13T22:28:38.161Z,14.86
2018-07-13T22:31:06.337Z,14.82
2018-07-13T22:33:34.404Z,14.75
2018-07-13T22:36:02.533Z,14.76
2018-07-13T22:38:30.652Z,14.71
2018-07-13T22:40:59.008Z,14.68
2018-07-13T22:43:27.175Z,14.67
2018-07-13T22:45:55.308Z,14.68
2018-07-13T22:48:23.425Z,14.60
2018-07-13T22:50:51.580Z,14.49
2018-07-13T22:53:19.648Z,14.50
2018-07-13T22:55:47.757Z,14.51
2018-07-13T22:58:15.898Z,14.37
2018-07-13T23:00:44.020Z,14.43
2018-07-13T23:03:12.148Z,14.32
2018-07-13T23:05:40.231Z,14.43
2018-07-13T23:08:08.370Z,14.31
2018-07-13T23:10:36.516Z,14.31
2018-07-13T23:13:04.636Z,14.37
2018-07-13T23:15:32.812Z,14.11
2018-07-13T23:18:00.929Z,14.16
2018-07-13T23:20:29.105Z,14.05
2018-07-13T23:22:57.239Z,14.10
2018-07-13T23:25:25.358Z,14.20
2018-07-13T23:27:53.441Z,14.22
2018-07-13T23:30:21.562Z,14.32
2018-07-13T23:32:49.712Z,14.34
2018-07-13T23:35:17.836Z,14.41
2018-07-13T23:37:45.930Z,14.43
2018-07-13T23:40:14.056Z,14.25
2018-07-13T23:42:42.148Z,14.14
2018-07-13T23:45:10.320Z,14.21
2018-07-13T23:47:38.432Z,14.23
2018-07-13T23:50:06.850Z,14.26
2018-07-13T23:52:35.072Z,14.24
2018-07-13T23:55:03.226Z,14.10
2018-07-13T23:57:31.332Z,13.99
2018-07-13T23:59:59.485Z,13.90
